Time;durP1;ratioP1;P1;durP2;ratioP2;P2;SDS_P1;SDS_P2;PMS_P1;PMS_P2;Temp;Humidity;BMP_temperature;BMP_pressure;BME280_temperature;BME280_humidity;BME280_pressure;Samples;Min_cycle;Max_cycle;Signal;HPM_P1;HPM_P2
2023/04/04 00:02:06;;;;;;;;;;;;;;;;;;4926967;29;19919;-81
2023/04/04 00:04:31;;;;;;;;;;;;;;;;;;4943677;29;19929;-80
2023/04/04 00:06:57;;;;;;;;;;;;;;;;;;4943856;28;19903;-81
2023/04/04 00:09:23;;;;;;;;;;;;;;;;;;4942758;28;19910;-83
2023/04/04 00:11:48;;;;;;;;;;;;;;;;;;4940953;29;19919;-82
2023/04/04 00:14:13;;;;;;;;;;;;;;;;;;4922708;29;19915;-82
2023/04/04 00:16:39;;;;;;;;;;;;;;;;;;4939352;29;19930;-83
2023/04/04 00:19:04;;;;;;;;;;;;;;;;;;4936599;29;19916;-82
2023/04/04 00:21:30;;;;;;;;;;;;;;;;;;4922054;29;20291;-83
2023/04/04 00:23:56;;;;;;;;;;;;;;;;;;4938679;29;19915;-83
2023/04/04 00:26:21;;;;;;;;;;;;;;;;;;4938812;29;19919;-84
2023/04/04 00:28:46;;;;;;;;;;;;;;;;;;4938536;29;19922;-82
2023/04/04 00:31:12;;;;;;;;;;;;;;;;;;4937664;29;19943;-82
2023/04/04 00:33:37;;;;;;;;;;;;;;;;;;4933112;23;19927;-91
2023/04/04 00:36:03;;;;;;;;;;;;;;;;;;4919420;29;19919;-94
2023/04/04 00:38:29;;;;;;;;;;;;;;;;;;4920253;29;19919;-94
2023/04/04 00:40:54;;;;;;;;;;;;;;;;;;4888021;29;19954;-92
2023/04/04 00:43:20;;;;;;;;;;;;;;;;;;4884012;29;20396;-91
2023/04/04 00:45:46;;;;;;;;;;;;;;;;;;4883646;29;19923;-93
2023/04/04 00:48:12;;;;;;;;;;;;;;;;;;4900165;29;20303;-92
2023/04/04 00:50:37;;;;;;;;;;;;;;;;;;4880299;29;20006;-91
2023/04/04 00:53:03;;;;;;;;;;;;;;;;;;4867233;29;19964;-90
2023/04/04 00:55:29;;;;;;;;;;;;;;;;;;4865625;29;20414;-90
2023/04/04 00:57:54;;;;;;;;;;;;;;;;;;4866158;29;19916;-95
2023/04/04 01:00:20;;;;;;;;;;;;;;;;;;4865420;29;19916;-90
2023/04/04 01:02:46;;;;;;;;;;;;;;;;;;4865691;29;19916;-88
2023/04/04 01:05:12;;;;;;;;;;;;;;;;;;4864144;29;19948;-91
2023/04/04 01:07:37;;;;;;;;;;;;;;;;;;4897617;29;19920;-92
2023/04/04 01:10:03;;;;;;;;;;;;;;;;;;4867913;29;20336;-91
2023/04/04 01:12:29;;;;;;;;;;;;;;;;;;4900254;29;19969;-90
2023/04/04 01:14:54;;;;;;;;;;;;;;;;;;4883907;29;19922;-90
2023/04/04 01:17:20;;;;;;;;;;;;;;;;;;4884447;29;20340;-90
2023/04/04 01:19:45;;;;;;;;;;;;;;;;;;4868817;29;19950;-92
2023/04/04 01:22:15;;;;;;;;;;;;;;;;;;4869045;29;19923;-93
2023/04/04 01:24:42;;;;;;;;;;;;;;;;;;4872144;29;19916;-91
2023/04/04 01:27:08;;;;;;;;;;;;;;;;;;4866170;29;20394;-92
2023/04/04 01:29:39;;;;;;;;;;;;;;;;;;4864864;29;19916;-94
2023/04/04 01:32:05;;;;;;;;;;;;;;;;;;4865598;29;20276;-92
2023/04/04 01:34:30;;;;;;;;;;;;;;;;;;4864939;29;19968;-94
2023/04/04 01:36:56;;;;;;;;;;;;;;;;;;4864797;29;20011;-90
2023/04/04 01:39:22;;;;;;;;;;;;;;;;;;4896482;29;20351;-91
2023/04/04 01:41:47;;;;;;;;;;;;;;;;;;4896352;29;19920;-92
2023/04/04 01:44:14;;;;;;;;;;;;;;;;;;4881594;29;20368;-89
2023/04/04 01:46:43;;;;;;;;;;;;;;;;;;4866453;29;19916;-93
2023/04/04 01:49:09;;;;;;;;;;;;;;;;;;4865765;29;19916;-94
2023/04/04 01:51:35;;;;;;;;;;;;;;;;;;4866451;29;20451;-92
2023/04/04 01:54:01;;;;;;;;;;;;;;;;;;4881584;29;19922;-93
2023/04/04 01:56:26;;;;;;;;;;;;;;;;;;4880713;29;20387;-93
2023/04/04 01:58:52;;;;;;;;;;;;;;;;;;4865327;29;19912;-91
2023/04/04 02:01:18;;;;;;;;;;;;;;;;;;4880018;29;20376;-92
2023/04/04 02:03:44;;;;;;;;;;;;;;;;;;4879684;29;19955;-92
2023/04/04 02:06:10;;;;;;;;;;;;;;;;;;4890422;29;19949;-94
2023/04/04 02:08:37;;;;;;;;;;;;;;;;;;4883068;29;20014;-93
2023/04/04 02:11:03;;;;;;;;;;;;;;;;;;4881180;29;19916;-91
2023/04/04 02:13:31;;;;;;;;;;;;;;;;;;4880948;29;19923;-95
2023/04/04 02:15:58;;;;;;;;;;;;;;;;;;4881162;29;19971;-92
2023/04/04 02:18:24;;;;;;;;;;;;;;;;;;4895253;29;19923;-92
2023/04/04 02:20:50;;;;;;;;;;;;;;;;;;4864826;29;19923;-91
2023/04/04 02:23:16;;;;;;;;;;;;;;;;;;4879873;29;19916;-91
2023/04/04 02:25:41;;;;;;;;;;;;;;;;;;4866857;29;20283;-93
2023/04/04 02:28:07;;;;;;;;;;;;;;;;;;4882960;29;19920;-91
2023/04/04 02:30:33;;;;;;;;;;;;;;;;;;4898139;29;19922;-94
2023/04/04 02:33:01;;;;;;;;;;;;;;;;;;4882430;29;20047;-93
2023/04/04 02:35:31;;;;;;;;;;;;;;;;;;4897543;29;19967;-93
2023/04/04 02:37:56;;;;;;;;;;;;;;;;;;4882532;29;19922;-90
2023/04/04 02:40:26;;;;;;;;;;;;;;;;;;4883258;29;19941;-90
2023/04/04 02:42:51;;;;;;;;;;;;;;;;;;4877195;29;20298;-91
2023/04/04 02:45:18;;;;;;;;;;;;;;;;;;4882753;29;19919;-91
2023/04/04 02:47:52;;;;;;;;;;;;;;;;;;4901294;29;19923;-92
2023/04/04 02:50:23;;;;;;;;;;;;;;;;;;4886405;29;19922;-90
2023/04/04 02:52:54;;;;;;;;;;;;;;;;;;4900274;29;19922;-91
2023/04/04 02:55:20;;;;;;;;;;;;;;;;;;4884118;29;20291;-92
2023/04/04 02:57:45;;;;;;;;;;;;;;;;;;4899569;29;20315;-92
2023/04/04 03:00:11;;;;;;;;;;;;;;;;;;4898918;29;19927;-92
2023/04/04 03:02:37;;;;;;;;;;;;;;;;;;4896697;29;20466;-89
2023/04/04 03:05:02;;;;;;;;;;;;;;;;;;4899722;29;19915;-91
2023/04/04 03:07:28;;;;;;;;;;;;;;;;;;4900543;29;19915;-90
2023/04/04 03:09:53;;;;;;;;;;;;;;;;;;4899731;29;19915;-92
2023/04/04 03:12:19;;;;;;;;;;;;;;;;;;4899305;29;19940;-91
2023/04/04 03:14:44;;;;;;;;;;;;;;;;;;4882978;29;19915;-93
2023/04/04 03:17:13;;;;;;;;;;;;;;;;;;4882809;29;20007;-93
2023/04/04 03:19:39;;;;;;;;;;;;;;;;;;4890209;29;19916;-92
2023/04/04 03:22:05;;;;;;;;;;;;;;;;;;4884524;29;19998;-90
2023/04/04 03:24:33;;;;;;;;;;;;;;;;;;4915155;29;20018;-94
2023/04/04 03:26:59;;;;;;;;;;;;;;;;;;4882699;29;20015;-92
2023/04/04 03:29:25;;;;;;;;;;;;;;;;;;4884324;29;19962;-91
2023/04/04 03:31:50;;;;;;;;;;;;;;;;;;4886682;29;19916;-93
2023/04/04 03:34:16;;;;;;;;;;;;;;;;;;4887633;29;19920;-93
2023/04/04 03:36:41;;;;;;;;;;;;;;;;;;4887692;29;19942;-91
2023/04/04 03:39:07;;;;;;;;;;;;;;;;;;4882027;29;20174;-91
2023/04/04 03:41:34;;;;;;;;;;;;;;;;;;4916087;29;19923;-92
2023/04/04 03:44:00;;;;;;;;;;;;;;;;;;4918862;29;19978;-91
2023/04/04 03:46:26;;;;;;;;;;;;;;;;;;4903658;29;19915;-89
2023/04/04 03:48:51;;;;;;;;;;;;;;;;;;4901378;29;19915;-92
2023/04/04 03:51:17;;;;;;;;;;;;;;;;;;4904265;29;19919;-93
2023/04/04 03:53:43;;;;;;;;;;;;;;;;;;4921515;29;19922;-89
2023/04/04 03:56:08;;;;;;;;;;;;;;;;;;4906905;29;19931;-89
2023/04/04 03:58:34;;;;;;;;;;;;;;;;;;4914378;29;19936;-88
2023/04/04 04:01:00;;;;;;;;;;;;;;;;;;4897817;29;19935;-91
2023/04/04 04:03:30;;;;;;;;;;;;;;;;;;4907716;29;19927;-93
2023/04/04 04:05:56;;;;;;;;;;;;;;;;;;4905054;29;20352;-92
2023/04/04 04:08:21;;;;;;;;;;;;;;;;;;4908498;29;20295;-93
2023/04/04 04:10:47;;;;;;;;;;;;;;;;;;4923775;29;19927;-93
2023/04/04 04:13:13;;;;;;;;;;;;;;;;;;4909742;29;19916;-90
2023/04/04 04:15:39;;;;;;;;;;;;;;;;;;4906034;29;20280;-89
2023/04/04 04:18:09;;;;;;;;;;;;;;;;;;4920905;29;19923;-92
2023/04/04 04:20:35;;;;;;;;;;;;;;;;;;4890229;29;19915;-92
2023/04/04 04:23:00;;;;;;;;;;;;;;;;;;4905249;29;19915;-91
2023/04/04 04:25:26;;;;;;;;;;;;;;;;;;4919352;29;19915;-92
2023/04/04 04:28:01;;;;;;;;;;;;;;;;;;4901016;29;20447;-93
2023/04/04 04:30:27;;;;;;;;;;;;;;;;;;4901421;29;19950;-92
2023/04/04 04:32:52;;;;;;;;;;;;;;;;;;4917232;29;19919;-87
2023/04/04 04:35:24;;;;;;;;;;;;;;;;;;4881706;29;19920;-93
2023/04/04 04:37:51;;;;;;;;;;;;;;;;;;4885466;29;19959;-89
2023/04/04 04:40:18;;;;;;;;;;;;;;;;;;4885570;29;19938;-91
2023/04/04 04:42:53;;;;;;;;;;;;;;;;;;4901621;29;19967;-92
2023/04/04 04:45:21;;;;;;;;;;;;;;;;;;4901359;29;19916;-92
2023/04/04 04:47:51;;;;;;;;;;;;;;;;;;4902606;29;19947;-91
2023/04/04 04:50:18;;;;;;;;;;;;;;;;;;4899140;29;20415;-90
2023/04/04 04:52:47;;;;;;;;;;;;;;;;;;4881438;29;19923;-92
2023/04/04 04:55:13;;;;;;;;;;;;;;;;;;4888260;29;19916;-91
2023/04/04 04:57:44;;;;;;;;;;;;;;;;;;4903028;29;20409;-92
2023/04/04 05:00:18;;;;;;;;;;;;;;;;;;4902410;29;19961;-92
2023/04/04 05:02:49;;;;;;;;;;;;;;;;;;4904092;29;19987;-92
2023/04/04 05:05:21;;;;;;;;;;;;;;;;;;4902137;29;19916;-93
2023/04/04 05:07:47;;;;;;;;;;;;;;;;;;4907166;29;20390;-91
2023/04/04 05:10:13;;;;;;;;;;;;;;;;;;4886130;29;20010;-91
2023/04/04 05:12:39;;;;;;;;;;;;;;;;;;4902036;29;19998;-90
2023/04/04 05:15:07;;;;;;;;;;;;;;;;;;4917075;29;20419;-91
2023/04/04 05:17:35;;;;;;;;;;;;;;;;;;4886197;29;19916;-90
2023/04/04 05:20:04;;;;;;;;;;;;;;;;;;4886994;29;20367;-90
2023/04/04 05:22:30;;;;;;;;;;;;;;;;;;4888224;29;19923;-91
2023/04/04 05:24:56;;;;;;;;;;;;;;;;;;4885694;29;19915;-93
2023/04/04 05:27:23;;;;;;;;;;;;;;;;;;4897809;29;19916;-92
2023/04/04 05:29:56;;;;;;;;;;;;;;;;;;4884696;29;19998;-92
2023/04/04 05:32:23;;;;;;;;;;;;;;;;;;4883738;29;19962;-92
2023/04/04 05:34:57;;;;;;;;;;;;;;;;;;4898693;29;19916;-93
2023/04/04 05:37:22;;;;;;;;;;;;;;;;;;4883424;29;19923;-90
2023/04/04 05:39:48;;;;;;;;;;;;;;;;;;4884591;29;20054;-91
2023/04/04 05:42:14;;;;;;;;;;;;;;;;;;4879756;29;19955;-92
2023/04/04 05:44:45;;;;;;;;;;;;;;;;;;4886684;29;19916;-90
2023/04/04 05:47:11;;;;;;;;;;;;;;;;;;4900694;29;19922;-90
2023/04/04 05:49:41;;;;;;;;;;;;;;;;;;4886658;29;19915;-91
2023/04/04 05:52:09;;;;;;;;;;;;;;;;;;4895878;29;19915;-92
2023/04/04 05:54:36;;;;;;;;;;;;;;;;;;4878419;29;19916;-91
2023/04/04 05:57:07;;;;;;;;;;;;;;;;;;4878114;29;19931;-92
2023/04/04 05:59:42;;;;;;;;;;;;;;;;;;4878095;29;19915;-91
2023/04/04 06:02:13;;;;;;;;;;;;;;;;;;4877924;29;19916;-89
2023/04/04 06:04:46;;;;;;;;;;;;;;;;;;4881418;29;19916;-91
2023/04/04 06:07:19;;;;;;;;;;;;;;;;;;4898986;29;19916;-90
2023/04/04 06:09:44;;;;;;;;;;;;;;;;;;4878759;29;19940;-92
2023/04/04 06:12:10;;;;;;;;;;;;;;;;;;4895603;29;19995;-92
2023/04/04 06:14:56;;;;;;;;;;;;;;;;;;4890807;29;19929;-92
2023/04/04 06:17:24;;;;;;;;;;;;;;;;;;4888307;29;20047;-93
2023/04/04 06:19:52;;;;;;;;;;;;;;;;;;4871174;29;19963;-90
2023/04/04 06:22:18;;;;;;;;;;;;;;;;;;4875848;29;19916;-92
2023/04/04 06:24:50;;;;;;;;;;;;;;;;;;4871698;29;19926;-91
2023/04/04 06:27:16;;;;;;;;;;;;;;;;;;4888015;29;20004;-92
2023/04/04 06:29:43;;;;;;;;;;;;;;;;;;4903964;29;19915;-93
2023/04/04 06:32:08;;;;;;;;;;;;;;;;;;4887951;29;20277;-93
2023/04/04 06:34:40;;;;;;;;;;;;;;;;;;4939489;23;19931;-78
2023/04/04 06:37:06;;;;;;;;;;;;;;;;;;4934543;29;19919;-79
2023/04/04 06:39:38;;;;;;;;;;;;;;;;;;4921715;29;19915;-79
2023/04/04 06:42:08;;;;;;;;;;;;;;;;;;4885543;29;20400;-78
2023/04/04 06:44:34;;;;;;;;;;;;;;;;;;4902287;29;19916;-79
2023/04/04 06:47:01;;;;;;;;;;;;;;;;;;4899074;29;19963;-79
2023/04/04 06:49:26;;;;;;;;;;;;;;;;;;4898840;29;19916;-79
2023/04/04 06:51:52;;;;;;;;;;;;;;;;;;4900931;29;19947;-78
2023/04/04 06:54:18;;;;;;;;;;;;;;;;;;4913659;29;19916;-79
2023/04/04 06:56:44;;;;;;;;;;;;;;;;;;4912377;29;20417;-79
2023/04/04 06:59:11;;;;;;;;;;;;;;;;;;4911700;29;19926;-79
2023/04/04 07:01:36;;;;;;;;;;;;;;;;;;4891299;29;20371;-80
2023/04/04 07:04:02;;;;;;;;;;;;;;;;;;4919682;29;19922;-79
2023/04/04 07:06:28;;;;;;;;;;;;;;;;;;4904338;29;19923;-79
2023/04/04 07:08:54;;;;;;;;;;;;;;;;;;4921601;29;19919;-79
2023/04/04 07:11:22;;;;;;;;;;;;;;;;;;4935874;29;19919;-79
2023/04/04 07:13:48;;;;;;;;;;;;;;;;;;4920066;29;20403;-79
2023/04/04 07:16:13;;;;;;;;;;;;;;;;;;4920951;29;20004;-78
2023/04/04 07:18:39;;;;;;;;;;;;;;;;;;4920622;29;19955;-79
2023/04/04 07:21:04;;;;;;;;;;;;;;;;;;4919235;29;20336;-79
2023/04/04 07:23:30;;;;;;;;;;;;;;;;;;4922110;29;19994;-79
2023/04/04 07:25:55;;;;;;;;;;;;;;;;;;4922288;29;19938;-82
2023/04/04 07:28:21;;;;;;;;;;;;;;;;;;4926193;29;20311;-76
2023/04/04 07:30:47;;;;;;;;;;;;;;;;;;4924870;29;19998;-76
2023/04/04 07:33:12;;;;;;;;;;;;;;;;;;4933091;29;19915;-76
2023/04/04 07:35:37;;;;;;;;;;;;;;;;;;4945805;29;19915;-76
2023/04/04 07:38:03;;;;;;;;;;;;;;;;;;4920584;29;19916;-75
2023/04/04 07:40:29;;;;;;;;;;;;;;;;;;4913047;29;19919;-76
2023/04/04 07:42:55;;;;;;;;;;;;;;;;;;4893460;29;19931;-76
2023/04/04 07:45:21;;;;;;;;;;;;;;;;;;4907347;29;20006;-76
2023/04/04 07:47:46;;;;;;;;;;;;;;;;;;4904896;29;19915;-76
2023/04/04 07:50:12;;;;;;;;;;;;;;;;;;4915291;29;19916;-85
2023/04/04 07:52:40;;;;;;;;;;;;;;;;;;4922995;29;20001;-83
2023/04/04 07:55:07;;;;;;;;;;;;;;;;;;4921831;29;19915;-86
2023/04/04 07:57:35;;;;;;;;;;;;;;;;;;4917380;29;19940;-84
2023/04/04 08:00:04;;;;;;;;;;;;;;;;;;4913041;29;19927;-84
2023/04/04 08:02:39;;;;;;;;;;;;;;;;;;4917688;29;19953;-83
2023/04/04 08:05:05;;;;;;;;;;;;;;;;;;4902572;29;20375;-84
2023/04/04 08:07:32;;;;;;;;;;;;;;;;;;4897333;29;19996;-83
2023/04/04 08:09:58;;;;;;;;;;;;;;;;;;4928440;29;19954;-83
2023/04/04 08:12:24;;;;;;;;;;;;;;;;;;4934465;29;19939;-84
2023/04/04 08:14:50;;;;;;;;;;;;;;;;;;4922664;29;19903;-84
2023/04/04 08:17:17;;;;;;;;;;;;;;;;;;4956648;29;19955;-84
2023/04/04 08:19:46;;;;;;;;;;;;;;;;;;4940930;28;19926;-84
2023/04/04 08:22:13;;;;;;;;;;;;;;;;;;4938374;29;19926;-84
2023/04/04 08:24:39;;;;;;;;;;;;;;;;;;4942705;29;19959;-85
2023/04/04 08:27:05;;;;;;;;;;;;;;;;;;4927059;29;19918;-84
2023/04/04 08:29:31;;;;;;;;;;;;;;;;;;4942407;29;19907;-84
2023/04/04 08:32:08;;;;;;;;;;;;;;;;;;4941796;29;19910;-85
2023/04/04 08:34:39;;;;;;;;;;;;;;;;;;4957087;29;19986;-84
2023/04/04 08:37:13;;;;;;;;;;;;;;;;;;4913189;29;19934;-84
2023/04/04 08:39:42;;;;;;;;;;;;;;;;;;4926721;29;19907;-84
2023/04/04 08:42:17;;;;;;;;;;;;;;;;;;4938433;29;19904;-83
2023/04/04 08:44:48;;;;;;;;;;;;;;;;;;4922293;29;19900;-84
2023/04/04 08:47:15;;;;;;;;;;;;;;;;;;4908484;29;19919;-84
2023/04/04 08:49:42;;;;;;;;;;;;;;;;;;4924528;29;19922;-83
2023/04/04 08:52:09;;;;;;;;;;;;;;;;;;4924990;29;19904;-84
2023/04/04 08:54:35;;;;;;;;;;;;;;;;;;4908628;29;19903;-84
2023/04/04 08:59:42;;;;;;;;;;;;;;;;;;5185250;23;19931;-83
2023/04/04 09:04:47;;;;;;;;;;;;;;;;;;5563976;23;19911;-83
2023/04/04 09:07:18;;;;;;;;;;;;;;;;;;5155721;23;19917;-85
2023/04/04 09:09:44;;;;;;;;;;;;;;;;;;4912282;28;19935;-84
2023/04/04 09:20:27;;;;;;;;;;;;;;;;;;4924320;29;19915;-84
2023/04/04 09:23:03;;;;;;;;;;;;;;;;;;4923477;29;19908;-85
2023/04/04 09:28:11;;;;;;;;;;;;;;;;;;5273307;23;19931;-85
2023/04/04 09:30:52;;;;;;;;;;;;;;;;;;5280311;23;19934;-83
2023/04/04 09:33:22;;;;;;;;;;;;;;;;;;4942503;28;19903;-83
2023/04/04 09:35:53;;;;;;;;;;;;;;;;;;4942060;28;19911;-82
2023/04/04 09:38:22;;;;;;;;;;;;;;;;;;4972241;23;19918;-85
2023/04/04 09:43:30;;;;;;;;;;;;;;;;;;5222454;23;19931;-84
2023/04/04 09:45:59;;;;;;;;;;;;;;;;;;4927217;29;19921;-85
2023/04/04 09:48:25;;;;;;;;;;;;;;;;;;5528423;23;19918;-84
2023/04/04 09:51:00;;;;;;;;;;;;;;;;;;5612270;23;19925;-81
2023/04/04 10:04:42;;;;;;;;;;;;;;;;;;5815358;23;19944;-82
2023/04/04 10:07:07;;;;;;;;;;;;;;;;;;5147617;23;19926;-81
2023/04/04 10:09:42;;;;;;;;;;;;;;;;;;4923099;29;19967;-83
2023/04/04 10:12:16;;;;;;;;;;;;;;;;;;4920029;29;19971;-82
2023/04/04 10:14:44;;;;;;;;;;;;;;;;;;4912556;29;20003;-81
2023/04/04 10:17:12;;;;;;;;;;;;;;;;;;4982165;23;19927;-83
2023/04/04 10:19:37;;;;;;;;;;;;;;;;;;4942579;28;19903;-84
2023/04/04 10:22:22;;;;;;;;;;;;;;;;;;4941923;28;19934;-84
2023/04/04 10:30:31;;;;;;;;;;;;;;;;;;5120132;23;19938;-84
2023/04/04 10:32:59;;;;;;;;;;;;;;;;;;4923191;29;19928;-84
2023/04/04 10:35:36;;;;;;;;;;;;;;;;;;4908421;29;19973;-85
2023/04/04 10:38:02;;;;;;;;;;;;;;;;;;4922419;29;19908;-83
2023/04/04 10:40:38;;;;;;;;;;;;;;;;;;;;;
2023/04/04 10:43:04;;;;;;;;;;;;;;;;;;4920152;29;19920;-83
2023/04/04 10:45:32;;;;;;;;;;;;;;;;;;4903928;29;20363;-84
2023/04/04 10:47:58;;;;;;;;;;;;;;;;;;4919329;29;20032;-84
2023/04/04 10:50:24;;;;;;;;;;;;;;;;;;4918389;29;19975;-82
2023/04/04 10:52:50;;;;;;;;;;;;;;;;;;4913942;29;19922;-83
2023/04/04 10:55:16;;;;;;;;;;;;;;;;;;4912301;29;19899;-84
2023/04/04 10:57:41;;;;;;;;;;;;;;;;;;4906256;29;19986;-82
2023/04/04 11:00:11;;;;;;;;;;;;;;;;;;4890969;29;19976;-84
2023/04/04 11:02:40;;;;;;;;;;;;;;;;;;4907597;29;19955;-83
2023/04/04 11:05:06;;;;;;;;;;;;;;;;;;4892743;29;19968;-83
2023/04/04 11:07:35;;;;;;;;;;;;;;;;;;4911692;29;19916;-84
2023/04/04 11:10:01;;;;;;;;;;;;;;;;;;4916811;29;19975;-85
2023/04/04 11:12:30;;;;;;;;;;;;;;;;;;4903779;29;19908;-83
2023/04/04 11:15:08;;;;;;;;;;;;;;;;;;4921098;28;19911;-84
2023/04/04 11:22:57;;;;;;;;;;;;;;;;;;5285698;23;19911;-83
2023/04/04 11:25:24;;;;;;;;;;;;;;;;;;4906673;29;19920;-82
2023/04/04 11:28:02;;;;;;;;;;;;;;;;;;5017639;23;19931;-87
2023/04/04 11:30:36;;;;;;;;;;;;;;;;;;4926877;29;19916;-77
2023/04/04 11:33:02;;;;;;;;;;;;;;;;;;4918896;29;19931;-77
2023/04/04 11:35:27;;;;;;;;;;;;;;;;;;4905101;29;19919;-77
2023/04/04 11:37:53;;;;;;;;;;;;;;;;;;4902658;29;19925;-76
2023/04/04 11:40:18;;;;;;;;;;;;;;;;;;4898977;29;19925;-77
2023/04/04 11:42:44;;;;;;;;;;;;;;;;;;4891092;29;20399;-76
2023/04/04 11:45:10;;;;;;;;;;;;;;;;;;4892031;29;19916;-76
2023/04/04 11:47:35;;;;;;;;;;;;;;;;;;4888510;29;19916;-77
2023/04/04 11:50:01;;;;;;;;;;;;;;;;;;4886064;29;20362;-78
2023/04/04 11:52:26;;;;;;;;;;;;;;;;;;4897944;29;19919;-78
2023/04/04 11:54:52;;;;;;;;;;;;;;;;;;4866766;29;20014;-78
2023/04/04 11:57:17;;;;;;;;;;;;;;;;;;4890212;29;19923;-79
2023/04/04 11:59:44;;;;;;;;;;;;;;;;;;4890334;29;20386;-79
2023/04/04 12:02:09;;;;;;;;;;;;;;;;;;4882389;29;19916;-78
2023/04/04 12:04:35;;;;;;;;;;;;;;;;;;4898468;29;20431;-78
2023/04/04 12:07:00;;;;;;;;;;;;;;;;;;4871901;29;20002;-78
2023/04/04 12:09:27;;;;;;;;;;;;;;;;;;4891977;29;19938;-78
2023/04/04 12:11:52;;;;;;;;;;;;;;;;;;4895658;29;20335;-77
2023/04/04 12:14:18;;;;;;;;;;;;;;;;;;4884909;29;19959;-78
2023/04/04 12:16:43;;;;;;;;;;;;;;;;;;4896918;29;20400;-79
2023/04/04 12:19:09;;;;;;;;;;;;;;;;;;4889089;29;19915;-77
2023/04/04 12:21:34;;;;;;;;;;;;;;;;;;4891602;29;20352;-77
2023/04/04 12:24:00;;;;;;;;;;;;;;;;;;4896518;29;19938;-78
2023/04/04 12:26:28;;;;;;;;;;;;;;;;;;4900019;29;20000;-77
2023/04/04 12:28:55;;;;;;;;;;;;;;;;;;4886390;29;19927;-78
2023/04/04 12:31:21;;;;;;;;;;;;;;;;;;4891890;29;19916;-77
2023/04/04 12:33:47;;;;;;;;;;;;;;;;;;4922341;23;19933;-77
2023/04/04 12:36:12;;;;;;;;;;;;;;;;;;4947158;29;19966;-77
2023/04/04 12:38:38;;;;;;;;;;;;;;;;;;4952128;29;19930;-76
2023/04/04 12:41:03;;;;;;;;;;;;;;;;;;4942457;29;20001;-78
2023/04/04 12:43:29;;;;;;;;;;;;;;;;;;4940395;28;19925;-76
2023/04/04 12:45:54;;;;;;;;;;;;;;;;;;4929186;29;20120;-75
2023/04/04 12:48:21;;;;;;;;;;;;;;;;;;4922025;29;19923;-76
2023/04/04 12:50:47;;;;;;;;;;;;;;;;;;4932848;29;19915;-77
2023/04/04 12:53:12;;;;;;;;;;;;;;;;;;4924307;29;19922;-78
2023/04/04 12:55:38;;;;;;;;;;;;;;;;;;4925679;29;20430;-77
2023/04/04 12:58:03;;;;;;;;;;;;;;;;;;4929375;29;20331;-77
2023/04/04 13:00:28;;;;;;;;;;;;;;;;;;4920550;29;19954;-78
2023/04/04 13:02:54;;;;;;;;;;;;;;;;;;4931430;29;19975;-77
2023/04/04 13:05:21;;;;;;;;;;;;;;;;;;4924812;29;20306;-77
2023/04/04 13:07:47;;;;;;;;;;;;;;;;;;4924584;29;20074;-78
2023/04/04 13:10:13;;;;;;;;;;;;;;;;;;4925919;29;20384;-88
2023/04/04 13:12:39;;;;;;;;;;;;;;;;;;4932354;29;19977;-88
2023/04/04 13:15:05;;;;;;;;;;;;;;;;;;4923332;29;19918;-88
2023/04/04 13:17:31;;;;;;;;;;;;;;;;;;4926374;29;19915;-88
2023/04/04 13:19:56;;;;;;;;;;;;;;;;;;4930124;29;20275;-87
2023/04/04 13:22:22;;;;;;;;;;;;;;;;;;4919678;29;19915;-89
2023/04/04 13:24:47;;;;;;;;;;;;;;;;;;4930637;29;19937;-88
2023/04/04 13:27:13;;;;;;;;;;;;;;;;;;4923024;29;19915;-87
2023/04/04 13:29:38;;;;;;;;;;;;;;;;;;4924549;29;19974;-88
2023/04/04 13:32:04;;;;;;;;;;;;;;;;;;4931269;29;20402;-89
2023/04/04 13:34:30;;;;;;;;;;;;;;;;;;4920321;29;19919;-89
2023/04/04 13:36:55;;;;;;;;;;;;;;;;;;4917326;29;19919;-89
2023/04/04 13:39:20;;;;;;;;;;;;;;;;;;4915807;29;19915;-88
2023/04/04 13:41:46;;;;;;;;;;;;;;;;;;4924129;29;19915;-88
2023/04/04 13:44:11;;;;;;;;;;;;;;;;;;4930131;29;19915;-88
2023/04/04 13:46:37;;;;;;;;;;;;;;;;;;4903411;29;19986;-89
2023/04/04 13:49:03;;;;;;;;;;;;;;;;;;4913540;29;19915;-86
2023/04/04 13:51:28;;;;;;;;;;;;;;;;;;4924160;29;20009;-86
2023/04/04 13:53:54;;;;;;;;;;;;;;;;;;4922689;29;20310;-87
2023/04/04 13:56:21;;;;;;;;;;;;;;;;;;4934446;29;21577;-88
2023/04/04 13:58:48;;;;;;;;;;;;;;;;;;4926144;29;19915;-79
2023/04/04 14:01:14;;;;;;;;;;;;;;;;;;4931072;29;20395;-80
2023/04/04 14:03:39;;;;;;;;;;;;;;;;;;4913325;29;19965;-78
2023/04/04 14:06:05;;;;;;;;;;;;;;;;;;4923384;29;19919;-79
2023/04/04 14:08:30;;;;;;;;;;;;;;;;;;4931314;29;20239;-78
2023/04/04 14:10:56;;;;;;;;;;;;;;;;;;4919703;29;19922;-78
2023/04/04 14:13:21;;;;;;;;;;;;;;;;;;4926089;29;19915;-79
2023/04/04 14:15:48;;;;;;;;;;;;;;;;;;4894618;29;20323;-81
2023/04/04 14:18:14;;;;;;;;;;;;;;;;;;4918477;29;20071;-81
2023/04/04 14:20:39;;;;;;;;;;;;;;;;;;4930211;29;20006;-80
2023/04/04 14:23:05;;;;;;;;;;;;;;;;;;4920713;29;21581;-85
2023/04/04 14:25:30;;;;;;;;;;;;;;;;;;4925578;29;19915;-90
2023/04/04 14:27:56;;;;;;;;;;;;;;;;;;4914092;29;19914;-92
2023/04/04 14:30:21;;;;;;;;;;;;;;;;;;4904907;29;19921;-92
2023/04/04 14:32:48;;;;;;;;;;;;;;;;;;4902725;29;19915;-92
2023/04/04 14:35:14;;;;;;;;;;;;;;;;;;4908392;29;19926;-90
2023/04/04 14:37:39;;;;;;;;;;;;;;;;;;4909223;29;19970;-91
2023/04/04 14:40:05;;;;;;;;;;;;;;;;;;4907048;29;20387;-91
2023/04/04 14:42:30;;;;;;;;;;;;;;;;;;4918238;29;20359;-91
2023/04/04 14:44:55;;;;;;;;;;;;;;;;;;4931097;29;19946;-91
2023/04/04 14:47:21;;;;;;;;;;;;;;;;;;4925056;29;20467;-89
2023/04/04 14:49:46;;;;;;;;;;;;;;;;;;4917166;29;19915;-90
2023/04/04 14:52:12;;;;;;;;;;;;;;;;;;4928052;29;20072;-91
2023/04/04 14:54:37;;;;;;;;;;;;;;;;;;4920370;29;19925;-89
2023/04/04 14:57:03;;;;;;;;;;;;;;;;;;4913841;29;19999;-91
2023/04/04 14:59:28;;;;;;;;;;;;;;;;;;4904389;29;19935;-86
2023/04/04 15:01:54;;;;;;;;;;;;;;;;;;4926158;29;19915;-85
2023/04/04 15:04:19;;;;;;;;;;;;;;;;;;4933180;29;19950;-85
2023/04/04 15:06:45;;;;;;;;;;;;;;;;;;4949195;29;19919;-84
2023/04/04 15:09:10;;;;;;;;;;;;;;;;;;4937869;29;20031;-85
2023/04/04 15:11:36;;;;;;;;;;;;;;;;;;4953081;29;20207;-84
2023/04/04 15:14:10;;;;;;;;;;;;;;;;;;4937125;29;19987;-83
2023/04/04 15:16:36;;;;;;;;;;;;;;;;;;4941370;29;19926;-84
2023/04/04 15:19:02;;;;;;;;;;;;;;;;;;4930028;29;19915;-84
2023/04/04 15:21:27;;;;;;;;;;;;;;;;;;4933276;29;20414;-83
2023/04/04 15:23:53;;;;;;;;;;;;;;;;;;4933045;29;19915;-85
2023/04/04 15:26:18;;;;;;;;;;;;;;;;;;4940706;29;20006;-85
2023/04/04 15:28:44;;;;;;;;;;;;;;;;;;4920235;29;19978;-85
2023/04/04 15:31:12;;;;;;;;;;;;;;;;;;4919906;29;20007;-84
2023/04/04 15:33:38;;;;;;;;;;;;;;;;;;4920343;29;19919;-85
2023/04/04 15:36:04;;;;;;;;;;;;;;;;;;4917263;29;19922;-85
2023/04/04 15:38:29;;;;;;;;;;;;;;;;;;4921559;29;19919;-85
2023/04/04 15:40:56;;;;;;;;;;;;;;;;;;4920935;29;19926;-85
2023/04/04 15:43:22;;;;;;;;;;;;;;;;;;4929733;29;19938;-85
2023/04/04 15:45:48;;;;;;;;;;;;;;;;;;4927193;29;19915;-85
2023/04/04 15:48:13;;;;;;;;;;;;;;;;;;4920259;29;19939;-86
2023/04/04 15:50:39;;;;;;;;;;;;;;;;;;4918432;29;19915;-85
2023/04/04 15:53:04;;;;;;;;;;;;;;;;;;4892220;29;20367;-84
2023/04/04 15:55:30;;;;;;;;;;;;;;;;;;4908169;29;19985;-83
2023/04/04 15:57:55;;;;;;;;;;;;;;;;;;4918092;29;19935;-84
2023/04/04 16:00:21;;;;;;;;;;;;;;;;;;4933858;29;19915;-86
2023/04/04 16:02:46;;;;;;;;;;;;;;;;;;4888580;29;20443;-81
2023/04/04 16:05:12;;;;;;;;;;;;;;;;;;4927230;29;19915;-84
2023/04/04 16:07:37;;;;;;;;;;;;;;;;;;4927620;29;19951;-85
2023/04/04 16:10:03;;;;;;;;;;;;;;;;;;4932790;29;20002;-85
2023/04/04 16:12:28;;;;;;;;;;;;;;;;;;4923366;29;19915;-84
2023/04/04 16:14:53;;;;;;;;;;;;;;;;;;4939672;29;19941;-84
2023/04/04 16:17:19;;;;;;;;;;;;;;;;;;4935005;29;19918;-85
2023/04/04 16:19:45;;;;;;;;;;;;;;;;;;4925997;29;19923;-86
2023/04/04 16:22:12;;;;;;;;;;;;;;;;;;4936933;29;19914;-85
2023/04/04 16:24:37;;;;;;;;;;;;;;;;;;4935803;29;20391;-87
2023/04/04 16:27:03;;;;;;;;;;;;;;;;;;4924765;29;19914;-87
2023/04/04 16:29:29;;;;;;;;;;;;;;;;;;4929447;29;20365;-87
2023/04/04 16:31:55;;;;;;;;;;;;;;;;;;4932856;29;19918;-86
2023/04/04 16:34:20;;;;;;;;;;;;;;;;;;4921625;29;19930;-88
2023/04/04 16:36:46;;;;;;;;;;;;;;;;;;4919172;29;19919;-89
2023/04/04 16:39:11;;;;;;;;;;;;;;;;;;4908440;29;20313;-90
2023/04/04 16:41:39;;;;;;;;;;;;;;;;;;4906452;29;19981;-89
2023/04/04 16:44:05;;;;;;;;;;;;;;;;;;4923177;29;19930;-90
2023/04/04 16:46:30;;;;;;;;;;;;;;;;;;4929070;29;19916;-90
2023/04/04 16:48:56;;;;;;;;;;;;;;;;;;4911552;29;19971;-89
2023/04/04 16:51:21;;;;;;;;;;;;;;;;;;4927064;29;20440;-90
2023/04/04 16:53:47;;;;;;;;;;;;;;;;;;4912681;29;19923;-91
2023/04/04 16:56:12;;;;;;;;;;;;;;;;;;4914111;29;19919;-90
2023/04/04 16:58:38;;;;;;;;;;;;;;;;;;4931155;29;19966;-90
2023/04/04 17:01:04;;;;;;;;;;;;;;;;;;4914173;29;19921;-91
2023/04/04 17:03:29;;;;;;;;;;;;;;;;;;4914241;29;19958;-89
2023/04/04 17:05:58;;;;;;;;;;;;;;;;;;4924507;29;19930;-90
2023/04/04 17:08:24;;;;;;;;;;;;;;;;;;4920259;29;20030;-90
2023/04/04 17:10:49;;;;;;;;;;;;;;;;;;4920507;29;19927;-91
2023/04/04 17:13:15;;;;;;;;;;;;;;;;;;4913089;29;20386;-92
2023/04/04 17:15:40;;;;;;;;;;;;;;;;;;4920083;29;19926;-93
2023/04/04 17:18:07;;;;;;;;;;;;;;;;;;4922384;29;19926;-92
2023/04/04 17:20:32;;;;;;;;;;;;;;;;;;4922234;29;19915;-89
2023/04/04 17:22:58;;;;;;;;;;;;;;;;;;4905303;29;19922;-92
2023/04/04 17:25:27;;;;;;;;;;;;;;;;;;4922545;29;19922;-93